Time;durP1;ratioP1;P1;durP2;ratioP2;P2;SDS_P1;SDS_P2;PMS_P1;PMS_P2;Temp;Humidity;BMP_temperature;BMP_pressure;BME280_temperature;BME280_humidity;BME280_pressure;Samples;Min_cycle;Max_cycle;Signal;HPM_P1;HPM_P2
2023/08/23 00:01:59;;;;;;;7.03;6.28;;;;;;;28.20;60.60;95580.47;6273102;22;20196;-82
2023/08/23 00:04:26;;;;;;;6.78;6.07;;;;;;;28.21;60.71;95597.13;6275174;22;20189;-82
2023/08/23 00:06:54;;;;;;;7.65;5.60;;;;;;;28.21;60.79;95586.53;6274883;22;20718;-82
2023/08/23 00:09:20;;;;;;;7.85;6.45;;;;;;;28.24;60.40;95589.41;6274873;22;20176;-82
2023/08/23 00:11:47;;;;;;;7.80;6.50;;;;;;;28.13;61.11;95599.31;6275112;22;20168;-82
2023/08/23 00:14:13;;;;;;;9.48;6.15;;;;;;;28.13;61.24;95604.63;6274299;22;20557;-81
2023/08/23 00:16:40;;;;;;;7.05;6.15;;;;;;;28.10;61.27;95597.25;6274529;22;20180;-82
2023/08/23 00:19:06;;;;;;;8.07;6.45;;;;;;;28.00;61.85;95618.56;6274510;22;20176;-81
2023/08/23 00:21:33;;;;;;;7.13;6.43;;;;;;;28.06;61.35;95603.41;6276076;22;20199;-82
2023/08/23 00:24:00;;;;;;;7.38;6.03;;;;;;;28.01;61.27;95612.22;6273977;22;20195;-82
2023/08/23 00:26:27;;;;;;;7.03;6.25;;;;;;;27.95;61.87;95621.28;6274247;22;20176;-82
2023/08/23 00:28:53;;;;;;;9.30;6.30;;;;;;;27.91;61.90;95625.56;6274582;22;20496;-82
2023/08/23 00:31:20;;;;;;;7.93;6.00;;;;;;;27.89;61.94;95635.69;6274056;22;20168;-82
2023/08/23 00:33:46;;;;;;;7.15;6.10;;;;;;;27.92;61.98;95629.78;6274678;22;20185;-82
2023/08/23 00:36:13;;;;;;;6.50;6.00;;;;;;;27.91;62.21;95630.06;6274417;22;20179;-80
2023/08/23 00:38:39;;;;;;;6.95;6.07;;;;;;;27.82;62.47;95636.00;6274604;22;20196;-81
2023/08/23 00:41:07;;;;;;;6.45;5.75;;;;;;;27.82;62.63;95641.31;6274563;22;20195;-82
2023/08/23 00:43:33;;;;;;;9.57;6.50;;;;;;;27.92;62.47;95642.25;6274400;22;20184;-82
2023/08/23 00:46:00;;;;;;;6.47;5.70;;;;;;;28.00;61.53;95631.81;6274366;22;20172;-82
2023/08/23 00:48:26;;;;;;;6.13;5.57;;;;;;;27.95;62.15;95625.78;6274394;22;20196;-82
2023/08/23 00:50:53;;;;;;;8.77;6.45;;;;;;;27.83;62.29;95628.88;6274188;22;20172;-82
2023/08/23 00:53:21;;;;;;;7.60;6.05;;;;;;;27.81;61.96;95629.16;6273846;22;20181;-82
2023/08/23 00:55:47;;;;;;;6.32;5.68;;;;;;;27.83;61.78;95631.50;6274118;22;20187;-82
2023/08/23 00:58:15;;;;;;;6.45;5.72;;;;;;;27.87;62.10;95616.66;6274146;22;20192;-82
2023/08/23 01:00:42;;;;;;;6.68;6.07;;;;;;;27.85;61.48;95614.28;6273277;22;20176;-82
2023/08/23 01:03:08;;;;;;;7.60;5.75;;;;;;;27.87;61.71;95605.28;6274367;22;20196;-82
2023/08/23 01:05:45;;;;;;;6.60;5.97;;;;;;;27.81;61.65;95607.97;6273644;22;20488;-82
2023/08/23 01:08:18;;;;;;;6.32;5.78;;;;;;;27.82;61.40;95606.91;6274061;22;20203;-81
2023/08/23 01:10:49;;;;;;;8.95;5.78;;;;;;;27.79;61.58;95602.19;6273710;22;20160;-82
2023/08/23 01:13:24;;;;;;;5.72;5.32;;;;;;;27.76;62.11;95610.69;6273718;22;20638;-83
2023/08/23 01:15:52;;;;;;;7.20;5.97;;;;;;;27.72;61.85;95611.53;6274257;22;20156;-82
2023/08/23 01:18:20;;;;;;;6.75;5.95;;;;;;;27.78;61.52;95613.03;6274636;22;20199;-82
2023/08/23 01:20:49;;;;;;;6.20;5.60;;;;;;;27.68;61.88;95613.19;6276003;22;20176;-81
2023/08/23 01:23:18;;;;;;;7.65;5.40;;;;;;;27.69;62.56;95622.69;6274206;22;20207;-82
2023/08/23 01:25:45;;;;;;;6.47;5.78;;;;;;;27.68;62.30;95635.13;6272905;22;20180;-82
2023/08/23 01:28:11;;;;;;;6.38;5.78;;;;;;;27.60;62.63;95648.97;6274014;22;20652;-81
2023/08/23 01:30:39;;;;;;;7.40;5.40;;;;;;;27.59;62.56;95650.06;6274143;22;20628;-82
2023/08/23 01:33:12;;;;;;;8.60;5.80;;;;;;;27.53;62.70;95651.94;6272627;22;20183;-81
2023/08/23 01:35:45;;;;;;;8.70;5.85;;;;;;;27.51;63.10;95659.38;6273727;22;20164;-82
2023/08/23 01:38:14;;;;;;;8.80;5.70;;;;;;;27.53;62.76;95667.00;6273130;22;20255;-83
2023/08/23 01:40:42;;;;;;;9.43;5.82;;;;;;;27.42;63.68;95686.72;6273586;22;20172;-82
2023/08/23 01:43:08;;;;;;;5.85;5.38;;;;;;;27.35;63.87;95687.03;6272848;22;20196;-82
2023/08/23 01:45:35;;;;;;;6.40;5.90;;;;;;;27.31;63.93;95693.19;6273466;22;20175;-81
2023/08/23 01:48:01;;;;;;;8.13;6.28;;;;;;;27.29;64.52;95708.53;6273467;22;20560;-82
2023/08/23 01:50:28;;;;;;;6.30;5.70;;;;;;;27.14;65.43;95710.22;6274102;22;20889;-82
2023/08/23 01:52:54;;;;;;;7.35;6.05;;;;;;;27.22;64.66;95700.13;6274499;22;20169;-81
2023/08/23 01:55:20;;;;;;;6.40;5.88;;;;;;;27.16;65.44;95718.69;6273745;22;20183;-82
2023/08/23 01:57:48;;;;;;;6.57;6.03;;;;;;;27.12;65.51;95711.59;6273844;22;20188;-81
2023/08/23 02:00:15;;;;;;;6.00;5.60;;;;;;;27.00;65.77;95735.72;6274046;22;20172;-81
2023/08/23 02:02:41;;;;;;;7.10;6.60;;;;;;;27.11;65.29;95731.16;6272442;22;20203;-81
2023/08/23 02:05:08;;;;;;;8.52;5.93;;;;;;;27.12;65.45;95722.19;6273758;22;20674;-82
2023/08/23 02:07:34;;;;;;;7.80;6.50;;;;;;;27.10;64.83;95703.94;6273803;22;20196;-82
2023/08/23 02:10:01;;;;;;;6.22;5.70;;;;;;;27.11;64.97;95710.81;6274876;22;20172;-81
2023/08/23 02:12:27;;;;;;;8.80;5.82;;;;;;;27.14;64.78;95704.94;6275905;22;20539;-82
2023/08/23 02:14:55;;;;;;;6.95;6.13;;;;;;;27.17;65.13;95691.16;6276183;22;20176;-82
2023/08/23 02:17:21;;;;;;;5.85;5.35;;;;;;;27.13;65.07;95690.16;6276299;22;20552;-82
2023/08/23 02:19:50;;;;;;;6.28;5.68;;;;;;;27.06;65.43;95713.50;6277391;22;20179;-82
2023/08/23 02:22:17;;;;;;;8.13;5.90;;;;;;;27.08;65.77;95724.56;6278018;22;20192;-82
2023/08/23 02:24:43;;;;;;;6.28;5.53;;;;;;;27.09;65.92;95725.38;6276642;22;20180;-82
2023/08/23 02:27:10;;;;;;;21.20;19.40;;;;;;;27.11;65.45;95718.75;6275791;22;20196;-82
2023/08/23 02:29:36;;;;;;;14.00;12.70;;;;;;;27.14;65.16;95717.38;6277267;22;20179;-82
2023/08/23 02:32:04;;;;;;;6.95;6.30;;;;;;;27.15;65.34;95726.88;6276016;22;20765;-81
2023/08/23 02:34:31;;;;;;;6.05;5.45;;;;;;;27.15;65.71;95722.38;6276554;22;20176;-82
2023/08/23 02:36:57;;;;;;;6.38;5.57;;;;;;;27.00;66.48;95742.88;6276508;22;20216;-82
2023/08/23 02:39:23;;;;;;;6.65;5.95;;;;;;;26.87;66.45;95752.19;6275780;22;20487;-81
2023/08/23 02:41:50;;;;;;;7.15;5.50;;;;;;;26.78;66.84;95748.53;6276124;22;20191;-82
2023/08/23 02:44:16;;;;;;;6.35;5.75;;;;;;;26.76;66.90;95763.88;6275771;22;20555;-82
2023/08/23 02:46:43;;;;;;;5.88;5.38;;;;;;;26.92;67.21;95772.53;6276171;22;20173;-82
2023/08/23 02:49:10;;;;;;;5.95;5.38;;;;;;;26.98;66.69;95753.72;6276059;22;20176;-82
2023/08/23 02:51:37;;;;;;;6.40;5.47;;;;;;;27.02;65.97;95749.47;6276976;22;20214;-82
2023/08/23 02:54:03;;;;;;;5.75;5.20;;;;;;;27.09;65.70;95726.16;6276071;22;20187;-82
2023/08/23 02:56:30;;;;;;;6.28;5.65;;;;;;;26.99;66.54;95749.22;6275789;22;20176;-82
2023/08/23 02:58:56;;;;;;;6.20;5.50;;;;;;;26.94;66.84;95751.91;6276787;22;20222;-81
2023/08/23 03:01:23;;;;;;;5.88;5.32;;;;;;;27.00;66.16;95738.38;6276005;22;20549;-82
2023/08/23 03:03:49;;;;;;;6.82;5.70;;;;;;;27.06;66.03;95734.63;6277411;22;20274;-82
2023/08/23 03:06:17;;;;;;;6.20;5.32;;;;;;;27.06;66.69;95737.28;6277254;22;20176;-82
2023/08/23 03:08:43;;;;;;;6.60;5.43;;;;;;;27.11;66.09;95729.31;6276929;22;20199;-82
2023/08/23 03:11:10;;;;;;;6.10;5.53;;;;;;;27.04;66.37;95733.34;6276405;22;20190;-82
2023/08/23 03:13:36;;;;;;;6.22;5.72;;;;;;;27.04;66.59;95730.69;6275987;22;20168;-82
2023/08/23 03:16:02;;;;;;;6.15;5.45;;;;;;;27.00;66.76;95735.72;6275729;22;20183;-83
2023/08/23 03:18:30;;;;;;;6.15;5.65;;;;;;;27.07;66.86;95743.34;6277819;22;20203;-82
2023/08/23 03:20:56;;;;;;;6.00;5.43;;;;;;;27.12;66.59;95740.69;6278080;22;20176;-82
2023/08/23 03:23:24;;;;;;;5.68;5.18;;;;;;;27.11;66.14;95734.59;6277702;22;20192;-82
2023/08/23 03:25:51;;;;;;;7.85;5.68;;;;;;;27.13;66.00;95727.16;6276937;22;20788;-81
2023/08/23 03:28:17;;;;;;;5.80;5.30;;;;;;;27.13;65.97;95734.34;6277747;22;20192;-81
2023/08/23 03:30:43;;;;;;;6.15;5.65;;;;;;;27.17;65.92;95736.13;6277925;22;20548;-82
2023/08/23 03:33:10;;;;;;;5.80;5.30;;;;;;;27.14;66.04;95733.22;6278050;22;20169;-82
2023/08/23 03:35:36;;;;;;;7.03;5.43;;;;;;;27.12;65.70;95740.69;6278328;22;20183;-81
2023/08/23 03:38:03;;;;;;;8.43;5.30;;;;;;;27.08;66.21;95744.94;6279240;22;20687;-82
2023/08/23 03:40:35;;;;;;;5.88;5.38;;;;;;;27.06;66.04;95739.94;6278995;22;20179;-82
2023/08/23 03:43:01;;;;;;;5.80;5.30;;;;;;;26.98;66.36;95766.94;6277717;22;20202;-82
2023/08/23 03:45:28;;;;;;;7.88;5.50;;;;;;;26.99;66.56;95779.09;6275840;22;20164;-82
2023/08/23 03:47:54;;;;;;;10.30;5.88;;;;;;;27.01;66.33;95773.53;6275343;22;20815;-81
2023/08/23 03:50:20;;;;;;;6.20;5.40;;;;;;;27.03;66.60;95761.63;6275805;22;20161;-81
2023/08/23 03:52:47;;;;;;;6.60;6.00;;;;;;;26.99;66.39;95765.88;6274759;22;20198;-80
2023/08/23 03:55:13;;;;;;;7.45;5.78;;;;;;;26.98;66.31;95752.94;6274705;22;20172;-82
2023/08/23 03:57:41;;;;;;;5.90;5.40;;;;;;;26.92;66.93;95762.75;6276753;22;20200;-81
2023/08/23 04:00:08;;;;;;;6.55;5.40;;;;;;;26.90;66.64;95764.88;6275950;22;20176;-82
2023/08/23 04:02:35;;;;;;;5.72;5.28;;;;;;;26.82;67.37;95783.94;6274593;22;20199;-82
2023/08/23 04:05:05;;;;;;;7.63;6.15;;;;;;;26.82;67.22;95792.66;6274788;22;20172;-82
2023/08/23 04:07:32;;;;;;;6.13;5.50;;;;;;;26.79;68.00;95790.56;6276113;22;20196;-81
2023/08/23 04:09:58;;;;;;;5.97;5.38;;;;;;;26.80;67.06;95786.84;6275139;22;20180;-81
2023/08/23 04:12:24;;;;;;;5.53;5.10;;;;;;;26.83;67.14;95785.50;6275222;22;20173;-81
2023/08/23 04:14:52;;;;;;;5.88;5.38;;;;;;;26.84;68.03;95795.03;6275265;22;20172;-81
2023/08/23 04:17:19;;;;;;;5.90;5.38;;;;;;;26.81;67.42;95785.78;6275231;22;20196;-81
2023/08/23 04:19:45;;;;;;;6.50;5.45;;;;;;;26.73;67.49;95796.94;6274524;22;20173;-80
2023/08/23 04:22:11;;;;;;;5.82;5.25;;;;;;;26.78;67.56;95793.47;6274422;22;20195;-81
2023/08/23 04:24:38;;;;;;;6.35;5.47;;;;;;;26.75;67.77;95794.00;6274092;22;20176;-81
2023/08/23 04:27:04;;;;;;;6.55;5.68;;;;;;;26.85;68.69;95809.81;6275129;22;20250;-80
2023/08/23 04:29:31;;;;;;;8.48;5.65;;;;;;;26.88;68.08;95790.78;6276120;22;20183;-80
2023/08/23 04:31:58;;;;;;;5.55;5.15;;;;;;;26.95;67.84;95795.75;6275297;22;20543;-81
2023/08/23 04:34:25;;;;;;;6.10;5.50;;;;;;;26.96;67.63;95806.06;6274586;22;20180;-79
2023/08/23 04:36:51;;;;;;;7.55;5.75;;;;;;;27.02;67.48;95804.19;6273499;22;20200;-80
2023/08/23 04:39:18;;;;;;;5.25;4.85;;;;;;;27.04;66.84;95780.91;6274336;22;20172;-80
2023/08/23 04:41:44;;;;;;;6.07;5.47;;;;;;;26.93;67.20;95780.19;6275302;22;20180;-80
2023/08/23 04:44:11;;;;;;;6.18;5.57;;;;;;;26.95;67.57;95788.63;6274450;22;20237;-82
2023/08/23 04:46:37;;;;;;;5.85;5.28;;;;;;;26.93;67.49;95782.81;6274218;22;20179;-79
2023/08/23 04:49:05;;;;;;;6.07;5.30;;;;;;;26.93;67.84;95797.88;6276080;22;20239;-80
2023/08/23 04:51:31;;;;;;;6.00;5.40;;;;;;;26.92;67.76;95810.31;6276183;22;20183;-80
2023/08/23 04:53:58;;;;;;;6.40;5.75;;;;;;;26.83;68.10;95801.38;6272750;22;20194;-81
2023/08/23 04:56:24;;;;;;;6.70;5.88;;;;;;;26.79;67.98;95795.03;6274327;22;20176;-80
2023/08/23 04:58:50;;;;;;;6.10;5.38;;;;;;;26.66;68.58;95808.88;6274892;22;20295;-80
2023/08/23 05:01:17;;;;;;;6.10;5.50;;;;;;;26.60;68.41;95810.72;6273839;22;20484;-80
2023/08/23 05:03:43;;;;;;;6.30;5.70;;;;;;;26.60;69.18;95825.78;6275245;22;20239;-80
2023/08/23 05:06:11;;;;;;;6.40;5.80;;;;;;;26.62;69.13;95828.97;6274795;22;20183;-80
2023/08/23 05:08:38;;;;;;;6.50;5.93;;;;;;;26.71;68.84;95822.84;6273926;22;20195;-80
2023/08/23 05:11:04;;;;;;;9.70;5.82;;;;;;;26.75;68.34;95825.72;6274882;22;20178;-79
2023/08/23 05:13:31;;;;;;;5.90;5.30;;;;;;;26.70;68.49;95828.41;6274556;22;20226;-79
2023/08/23 05:15:58;;;;;;;6.05;5.47;;;;;;;26.76;68.29;95836.00;6273070;22;20176;-80
2023/08/23 05:18:25;;;;;;;7.00;6.40;;;;;;;26.79;68.21;95837.31;6275216;22;20196;-79
2023/08/23 05:20:55;;;;;;;6.07;5.57;;;;;;;26.63;68.53;95841.91;6274665;22;20176;-80
2023/08/23 05:23:23;;;;;;;6.15;5.47;;;;;;;26.65;68.88;95841.63;6274354;22;20199;-81
2023/08/23 05:25:51;;;;;;;5.85;5.32;;;;;;;26.65;69.12;95842.41;6274205;22;20180;-80
2023/08/23 05:28:18;;;;;;;6.72;5.75;;;;;;;26.58;69.16;95839.28;6275479;22;20219;-80
2023/08/23 05:30:45;;;;;;;6.45;5.82;;;;;;;26.50;69.17;95834.56;6275015;22;20850;-80
2023/08/23 05:33:12;;;;;;;6.20;5.70;;;;;;;26.52;69.81;95844.88;6274738;22;20172;-79
2023/08/23 05:35:38;;;;;;;6.45;5.85;;;;;;;26.66;69.50;95835.28;6274067;22;20176;-79
2023/08/23 05:38:05;;;;;;;6.25;5.65;;;;;;;26.77;68.46;95818.31;6273908;22;20546;-79
2023/08/23 05:40:32;;;;;;;6.53;5.93;;;;;;;26.91;68.24;95810.59;6274558;22;20556;-79
2023/08/23 05:42:59;;;;;;;7.15;5.90;;;;;;;27.07;67.71;95802.31;6273981;22;20195;-79
2023/08/23 05:45:26;;;;;;;7.05;6.18;;;;;;;27.13;67.33;95787.22;6274047;22;20161;-80
2023/08/23 05:47:53;;;;;;;6.38;5.78;;;;;;;27.13;66.46;95774.75;6275738;22;20195;-79
2023/08/23 05:50:20;;;;;;;7.57;6.18;;;;;;;27.08;66.74;95774.00;6275776;22;20180;-78
2023/08/23 05:52:46;;;;;;;8.25;6.13;;;;;;;27.02;66.71;95794.41;6275495;22;20172;-79
2023/08/23 05:55:13;;;;;;;8.45;6.03;;;;;;;27.03;66.82;95795.19;6274860;22;20184;-79
2023/08/23 05:57:41;;;;;;;9.40;6.38;;;;;;;27.04;66.88;95794.13;6274898;22;20230;-80
2023/08/23 06:00:09;;;;;;;7.22;5.80;;;;;;;27.05;66.87;95788.56;6274391;22;20172;-81
2023/08/23 06:02:35;;;;;;;6.53;5.93;;;;;;;27.05;66.92;95787.78;6273023;22;20180;-82
2023/08/23 06:05:03;;;;;;;6.18;5.60;;;;;;;27.05;66.71;95775.34;6272919;22;20640;-82
2023/08/23 06:07:35;;;;;;;7.50;6.80;;;;;;;27.02;66.48;95775.09;6273611;22;20766;-79
2023/08/23 06:10:02;;;;;;;9.20;6.78;;;;;;;27.00;66.29;95759.53;6274952;22;20175;-78
2023/08/23 06:12:28;;;;;;;6.88;6.28;;;;;;;27.07;65.88;95757.38;6274617;22;20197;-78
2023/08/23 06:14:56;;;;;;;8.05;7.18;;;;;;;27.00;66.68;95775.38;6274464;22;20250;-79
2023/08/23 06:17:25;;;;;;;7.97;7.28;;;;;;;27.08;66.62;95755.50;6275493;22;20510;-79
2023/08/23 06:19:51;;;;;;;8.93;6.90;;;;;;;27.20;65.37;95739.28;6275192;22;20183;-79
2023/08/23 06:22:18;;;;;;;8.82;7.05;;;;;;;27.24;65.10;95725.22;6275518;22;20180;-79
2023/08/23 06:24:44;;;;;;;7.45;6.63;;;;;;;27.29;65.23;95719.91;6275179;22;20241;-78
2023/08/23 06:27:10;;;;;;;6.82;6.22;;;;;;;27.35;64.97;95713.47;6274026;22;20746;-79
2023/08/23 06:29:39;;;;;;;11.10;6.63;;;;;;;27.41;64.58;95703.66;6274503;22;20177;-79
2023/08/23 06:32:07;;;;;;;8.52;6.18;;;;;;;27.34;64.86;95703.97;6274234;22;20176;-79
2023/08/23 06:34:33;;;;;;;6.90;6.20;;;;;;;27.49;64.78;95711.00;6275281;22;20172;-79
2023/08/23 06:37:00;;;;;;;6.90;6.20;;;;;;;27.61;64.51;95708.75;6275651;22;20271;-79
2023/08/23 06:39:26;;;;;;;8.90;6.78;;;;;;;27.65;64.04;95709.00;6276990;22;20172;-79
2023/08/23 06:41:53;;;;;;;6.60;6.10;;;;;;;27.70;63.43;95693.88;6278386;22;20172;-79
2023/08/23 06:44:19;;;;;;;6.22;5.68;;;;;;;27.72;63.91;95691.69;6273797;22;20199;-79
2023/08/23 06:46:45;;;;;;;6.35;5.75;;;;;;;27.66;63.16;95684.13;6275257;22;20222;-79
2023/08/23 06:49:13;;;;;;;6.55;5.85;;;;;;;27.72;63.70;95690.91;6274945;22;20176;-79
2023/08/23 06:51:40;;;;;;;6.07;5.57;;;;;;;27.83;63.58;95695.03;6273305;22;20538;-79
2023/08/23 06:54:06;;;;;;;6.55;5.53;;;;;;;27.82;63.25;95688.16;6273084;22;20176;-81
2023/08/23 06:56:33;;;;;;;5.65;5.13;;;;;;;27.96;62.97;95680.31;6274607;22;20639;-80
2023/08/23 06:58:59;;;;;;;5.90;5.40;;;;;;;28.12;62.36;95671.88;6278008;22;20184;-81
2023/08/23 07:01:25;;;;;;;6.00;5.40;;;;;;;28.24;61.97;95660.13;6279863;22;20191;-81
2023/08/23 07:03:52;;;;;;;5.55;5.15;;;;;;;28.25;61.00;95649.25;6279615;22;20729;-80
2023/08/23 07:06:20;;;;;;;6.65;5.35;;;;;;;28.34;61.69;95652.03;6280126;22;20173;-80
2023/08/23 07:08:46;;;;;;;6.68;5.10;;;;;;;28.57;60.38;95615.91;6280429;22;20196;-81
2023/08/23 07:11:13;;;;;;;6.93;5.30;;;;;;;28.59;59.56;95592.56;6282126;22;20180;-81
2023/08/23 07:13:39;;;;;;;8.13;5.25;;;;;;;28.66;60.03;95591.13;6280306;22;20230;-81
2023/08/23 07:16:06;;;;;;;6.20;5.25;;;;;;;28.62;59.10;95576.88;6279231;22;20180;-81
2023/08/23 07:18:32;;;;;;;6.07;5.25;;;;;;;28.72;59.11;95567.97;6280391;22;20196;-82
2023/08/23 07:20:59;;;;;;;6.20;5.47;;;;;;;28.75;58.89;95554.91;6277880;22;20168;-82
2023/08/23 07:23:26;;;;;;;5.82;5.32;;;;;;;28.80;57.85;95532.88;6276282;22;20203;-82
2023/08/23 07:25:53;;;;;;;5.82;5.25;;;;;;;28.94;58.56;95532.88;6275352;22;20195;-82
2023/08/23 07:28:19;;;;;;;7.47;6.70;;;;;;;29.07;58.40;95545.34;6275627;22;20203;-83
2023/08/23 07:30:46;;;;;;;7.45;6.75;;;;;;;29.21;57.02;95487.81;6276485;22;20248;-83
2023/08/23 07:33:13;;;;;;;7.72;6.63;;;;;;;29.33;56.66;95495.25;6276161;22;20172;-82
2023/08/23 07:35:39;;;;;;;7.35;6.40;;;;;;;29.52;57.19;95506.53;6275133;22;20689;-83
2023/08/23 07:38:06;;;;;;;6.53;5.93;;;;;;;29.72;55.66;95446.91;6273586;22;20215;-82
2023/08/23 07:40:36;;;;;;;8.18;6.28;;;;;;;29.93;55.50;95440.03;6275068;22;20183;-83
2023/08/23 07:43:02;;;;;;;10.25;6.32;;;;;;;29.99;55.05;95412.31;6274994;22;20230;-81
2023/08/23 07:45:28;;;;;;;5.82;5.22;;;;;;;30.01;54.34;95388.13;6273910;22;20180;-81
2023/08/23 07:47:58;;;;;;;16.05;14.65;;;;;;;30.19;54.25;95382.59;6274061;22;20200;-82
2023/08/23 07:50:24;;;;;;;10.45;9.50;;;;;;;30.36;52.83;95342.03;6275585;22;20175;-81
2023/08/23 07:52:51;;;;;;;6.20;5.47;;;;;;;30.44;52.48;95327.19;6274523;22;20175;-82
2023/08/23 07:55:18;;;;;;;6.38;5.30;;;;;;;30.64;52.70;95333.81;6272876;22;20172;-82
2023/08/23 07:57:46;;;;;;;6.85;5.22;;;;;;;30.76;51.63;95271.00;6274419;22;20530;-82
2023/08/23 08:00:13;;;;;;;5.82;5.22;;;;;;;30.90;51.48;95260.22;6274380;22;20176;-82
2023/08/23 08:02:39;;;;;;;6.70;5.15;;;;;;;30.83;50.83;95234.06;6273904;22;20176;-82
2023/08/23 08:05:07;;;;;;;5.35;4.85;;;;;;;30.92;50.29;95226.13;6273354;22;20226;-82
2023/08/23 08:07:33;;;;;;;6.63;4.90;;;;;;;31.05;49.28;95177.28;6273255;22;20196;-81
2023/08/23 08:10:00;;;;;;;5.55;5.05;;;;;;;30.99;50.16;95191.81;6273755;22;20504;-81
2023/08/23 08:12:26;;;;;;;5.78;5.20;;;;;;;30.97;49.37;95175.44;6273987;22;20206;-82
2023/08/23 08:14:54;;;;;;;5.78;5.07;;;;;;;31.19;49.60;95169.13;6276191;22;21020;-82
2023/08/23 08:17:20;;;;;;;5.70;5.20;;;;;;;31.23;49.56;95178.03;6272096;22;20223;-82
2023/08/23 08:19:47;;;;;;;6.82;5.13;;;;;;;31.44;49.36;95180.81;6272087;22;20183;-82
2023/08/23 08:22:13;;;;;;;6.38;5.47;;;;;;;31.48;48.72;95147.13;6273576;22;20183;-82
2023/08/23 08:24:40;;;;;;;5.65;4.93;;;;;;;31.56;48.44;95123.13;6274273;22;20198;-82
2023/08/23 08:27:07;;;;;;;7.78;4.82;;;;;;;31.70;48.10;95122.16;6273987;22;20191;-82
2023/08/23 08:29:33;;;;;;;5.65;5.05;;;;;;;31.85;47.65;95106.41;6274138;22;20183;-82
2023/08/23 08:32:01;;;;;;;5.45;4.95;;;;;;;32.11;47.03;95082.28;6272604;22;20230;-82
2023/08/23 08:34:27;;;;;;;6.80;4.70;;;;;;;32.19;46.82;95070.75;6272002;22;20263;-82
2023/08/23 08:36:54;;;;;;;5.32;4.82;;;;;;;32.22;46.38;95048.81;6271154;22;20172;-82
2023/08/23 08:39:21;;;;;;;5.05;4.57;;;;;;;32.22;46.48;95048.03;6274092;22;20194;-82
2023/08/23 08:41:47;;;;;;;5.20;4.70;;;;;;;32.30;46.85;95071.16;6275683;22;20175;-82
2023/08/23 08:44:14;;;;;;;4.90;4.40;;;;;;;32.50;46.53;95067.69;6271496;22;20200;-82
2023/08/23 08:46:41;;;;;;;5.82;4.43;;;;;;;32.69;45.86;95026.41;6272205;22;20172;-80
2023/08/23 08:49:08;;;;;;;5.32;4.82;;;;;;;32.83;46.35;95032.25;6274649;22;20183;-82
2023/08/23 08:51:37;;;;;;;5.05;4.65;;;;;;;32.87;46.16;95014.47;6273981;22;20180;-82
2023/08/23 08:54:06;;;;;;;7.90;4.95;;;;;;;33.07;45.26;94988.81;6273551;22;20699;-82
2023/08/23 08:56:33;;;;;;;6.72;4.60;;;;;;;33.06;44.99;94958.69;6275293;22;20183;-81
2023/08/23 08:59:00;;;;;;;4.93;4.40;;;;;;;33.20;45.07;94963.66;6278924;22;20197;-82
2023/08/23 09:01:31;;;;;;;5.00;4.50;;;;;;;33.28;44.79;94950.25;6276141;22;20187;-82
2023/08/23 09:03:58;;;;;;;7.43;5.07;;;;;;;33.40;44.58;94943.31;6276420;22;20282;-82
2023/08/23 09:06:27;;;;;;;4.75;4.25;;;;;;;33.55;44.38;94940.72;6277531;22;20176;-82
2023/08/23 09:08:55;;;;;;;5.95;5.05;;;;;;;33.76;44.34;94927.19;6276790;22;20199;-82
2023/08/23 09:11:21;;;;;;;7.97;4.70;;;;;;;33.88;43.73;94892.44;6278424;22;20267;-82
2023/08/23 09:13:48;;;;;;;4.93;4.20;;;;;;;34.02;43.27;94851.97;6277710;22;20224;-83
2023/08/23 09:16:15;;;;;;;6.03;4.40;;;;;;;34.24;43.23;94861.31;6276704;22;20885;-82
2023/08/23 09:18:44;;;;;;;4.15;3.85;;;;;;;34.31;42.03;94805.34;6275843;22;20195;-82
2023/08/23 09:21:12;;;;;;;5.60;4.00;;;;;;;34.50;42.44;94824.13;6277876;22;20176;-82
2023/08/23 09:23:40;;;;;;;9.25;5.70;;;;;;;34.58;41.61;94793.78;6275715;22;20176;-81
2023/08/23 09:26:07;;;;;;;5.78;5.20;;;;;;;34.71;41.69;94799.00;6271960;22;20180;-81
2023/08/23 09:28:33;;;;;;;6.90;4.68;;;;;;;34.58;41.56;94780.41;6272820;22;20829;-82
2023/08/23 09:31:00;;;;;;;6.05;4.25;;;;;;;34.62;41.13;94759.09;6277429;22;20183;-82
2023/08/23 09:33:27;;;;;;;5.03;4.70;;;;;;;34.68;41.46;94764.91;6275811;22;20199;-82
2023/08/23 09:35:56;;;;;;;4.63;4.22;;;;;;;34.58;40.58;94732.25;6277157;22;20176;-82
2023/08/23 09:38:22;;;;;;;5.28;4.60;;;;;;;34.08;40.81;94733.00;6277487;22;20192;-82
2023/08/23 09:40:50;;;;;;;5.05;4.55;;;;;;;34.06;41.54;94755.88;6276669;22;20172;-81
2023/08/23 09:43:17;;;;;;;6.78;3.97;;;;;;;34.02;41.42;94761.13;6276415;22;20192;-82
2023/08/23 09:45:44;;;;;;;6.03;4.50;;;;;;;34.10;41.92;94781.53;6277234;22;20188;-82
2023/08/23 09:48:12;;;;;;;5.28;4.28;;;;;;;34.34;40.86;94761.91;6277486;22;20203;-81
2023/08/23 09:50:38;;;;;;;6.45;4.07;;;;;;;34.58;40.83;94742.19;6277288;22;20710;-82
2023/08/23 09:53:07;;;;;;;4.18;3.88;;;;;;;34.72;40.35;94709.59;6276900;22;20178;-83
2023/08/23 09:55:34;;;;;;;4.63;4.00;;;;;;;34.74;39.91;94699.34;6276228;22;20175;-82
2023/08/23 09:58:02;;;;;;;4.82;4.40;;;;;;;34.90;40.29;94729.50;6276119;22;20195;-82
2023/08/23 10:00:29;;;;;;;4.78;4.25;;;;;;;34.76;40.60;94721.16;6279023;22;20173;-82
2023/08/23 10:02:57;;;;;;;5.82;4.10;;;;;;;34.94;40.65;94727.66;6274738;22;20176;-82
2023/08/23 10:05:25;;;;;;;4.75;4.30;;;;;;;34.93;40.32;94715.41;6274827;22;20195;-81
2023/08/23 10:07:53;;;;;;;5.00;4.47;;;;;;;35.09;40.01;94716.09;6274525;22;20196;-82
2023/08/23 10:10:20;;;;;;;5.45;4.80;;;;;;;35.21;39.53;94673.13;6275301;22;20179;-82
2023/08/23 10:12:51;;;;;;;5.35;4.75;;;;;;;34.78;40.35;94686.84;6275464;22;20176;-82
2023/08/23 10:15:27;;;;;;;7.97;4.65;;;;;;;34.60;40.57;94713.19;6275502;22;20152;-83
2023/08/23 10:17:54;;;;;;;5.43;4.65;;;;;;;34.72;40.95;94736.34;6280924;22;20196;-82
2023/08/23 10:20:23;;;;;;;5.60;4.57;;;;;;;34.61;41.54;94765.56;6284207;22;20176;-82
2023/08/23 10:22:53;;;;;;;5.80;4.88;;;;;;;34.62;41.70;94789.28;6281802;22;20180;-81
2023/08/23 10:25:21;;;;;;;6.43;5.22;;;;;;;34.32;43.05;94840.88;6281559;22;20202;-82
2023/08/23 10:27:53;;;;;;;5.97;4.90;;;;;;;34.04;43.32;94852.41;6281421;22;20196;-82
2023/08/23 10:30:26;;;;;;;5.22;4.72;;;;;;;33.81;41.60;94766.72;6280806;22;20157;-82
2023/08/23 10:32:53;;;;;;;6.32;4.47;;;;;;;33.92;41.82;94775.75;6279590;22;20176;-82
2023/08/23 10:35:21;;;;;;;8.43;5.00;;;;;;;34.28;41.70;94768.63;6279831;22;20226;-82
2023/08/23 10:37:48;;;;;;;5.60;5.00;;;;;;;34.32;41.73;94752.66;6279334;22;20215;-82
2023/08/23 10:40:18;;;;;;;6.78;4.80;;;;;;;34.33;41.62;94776.38;6280660;22;20241;-82
2023/08/23 10:42:45;;;;;;;6.28;4.93;;;;;;;34.44;41.53;94765.94;6279777;22;20195;-81
2023/08/23 10:45:12;;;;;;;7.13;4.90;;;;;;;34.52;41.11;94747.03;6275765;22;20191;-82
2023/08/23 10:47:40;;;;;;;4.60;4.20;;;;;;;34.73;40.88;94743.25;6277411;22;20279;-83
2023/08/23 10:50:08;;;;;;;5.50;4.63;;;;;;;34.79;40.27;94709.78;6278216;22;20180;-81
2023/08/23 10:52:37;;;;;;;5.55;4.10;;;;;;;34.95;40.37;94705.91;6276080;22;20661;-82
2023/08/23 10:55:04;;;;;;;4.75;4.20;;;;;;;35.02;40.14;94691.13;6270253;22;20184;-82
2023/08/23 10:57:32;;;;;;;6.05;4.35;;;;;;;35.04;40.53;94720.97;6270416;22;20192;-82
2023/08/23 10:59:58;;;;;;;5.47;4.45;;;;;;;35.07;40.17;94682.78;6275285;22;20648;-82
2023/08/23 11:02:24;;;;;;;6.47;4.38;;;;;;;35.18;40.14;94708.63;6274788;22;20183;-81
2023/08/23 11:04:52;;;;;;;4.65;4.18;;;;;;;35.36;40.42;94716.25;6276568;22;20199;-82
2023/08/23 11:07:25;;;;;;;4.72;4.30;;;;;;;35.29;40.02;94701.59;6275964;22;20723;-82
2023/08/23 11:09:51;;;;;;;4.82;4.20;;;;;;;35.28;39.97;94683.97;6276339;22;20217;-82
2023/08/23 11:12:18;;;;;;;6.90;4.30;;;;;;;35.20;40.32;94682.28;6274220;22;20563;-82
2023/08/23 11:14:44;;;;;;;4.65;4.20;;;;;;;34.98;39.68;94658.94;6273233;22;20172;-82
2023/08/23 11:17:11;;;;;;;4.93;4.50;;;;;;;34.84;39.99;94666.69;6273905;22;20200;-82
2023/08/23 11:19:38;;;;;;;4.53;3.85;;;;;;;34.60;40.46;94692.56;6276334;22;20180;-82
2023/08/23 11:22:07;;;;;;;5.60;4.55;;;;;;;34.78;40.78;94701.00;6275552;22;20639;-82
2023/08/23 11:24:38;;;;;;;7.57;4.88;;;;;;;34.94;40.83;94714.28;6275794;22;20203;-82
2023/08/23 11:27:11;;;;;;;5.13;4.63;;;;;;;35.02;40.88;94717.88;6274244;22;20203;-82
2023/08/23 11:29:37;;;;;;;5.22;4.65;;;;;;;34.97;40.89;94705.56;6272738;22;20171;-82
2023/08/23 11:32:04;;;;;;;6.13;4.43;;;;;;;34.95;41.01;94716.59;6273128;22;20180;-84
2023/08/23 11:34:31;;;;;;;6.13;4.57;;;;;;;34.52;41.59;94738.22;6271532;22;20168;-82